Glen Burnie, Maryland
Current Conditions -  °F | °C
As of 3:54 AM on Saturday 20 Dec 2014 (Local Time) from KBWI Reporting Station
Few Clouds Few Clouds  
Wind Chill: 22°   Ceiling: Unl
Heat Index: 27°   Visibility: 10mi
Dew Point: 19°   Wind: 5mph
Humidity: 72%   Direction: 270°W
Pressure: 30.25"   Gusts: NA
Location:  39.16°N, 76.62°W
Report Text: KBWI 200854Z 27004KT 10SM FEW250 M03/M07 A3025 RMK AO2 SLP244 T10281072 51007
Loading
Personal Weather Stations






























Interactive Weather Map New forecast layout! Learn more

10-Day Weather Forecast

Advertisements
Track Severe Weather on mobile